Impacts METAR Board INFO
IDs:

KLGA - New York/La Guardia, NY, US

Updated at: 1941 UTC 17 Feb 2018
Potential Impact None Slight Moderate High
Time17/07Z 17/08Z 17/09Z 17/10Z 17/11Z 17/12Z 17/13Z 17/14Z 17/15Z 17/16Z 17/17Z 17/18Z 17/19Z
VIS10 10 10 10 10 10 10 10 10 10 10 10 10
CIG-- -- -- -- -- -- 250 250 250 250 250 250 41
CoverCLRCLRCLRCLRFEWSCTBKNBKNBKNBKNBKNBKNBKN
FltCatVFRVFRVFRVFRVFRVFRVFRVFRVFRVFRVFRVFRVFR
WX--------------------------
WDir33033032032034033033020605050150150
WSpd11 10 13 12 7 6 5 5 10 9 8 12 12
WGst-- -- -- -- -- -- -- -- -- -- -- 17 --
Raw hourly METARs
KLGA 170651Z 33011KT 10SM CLR 01/M09 A3025 RMK AO2 SLP242 T00111094 $
KLGA 170751Z 33010KT 10SM CLR 01/M09 A3026 RMK AO2 SLP247 T00061089 $
KLGA 170851Z 32013KT 10SM CLR 00/M09 A3030 RMK AO2 SLP259 T00001089 51032 $
KLGA 170951Z 32012KT 10SM CLR M01/M09 A3033 RMK AO2 SLP270 T10061089 $
KLGA 171051Z 34007KT 10SM FEW250 M01/M09 A3038 RMK AO2 SLP286 T10061089 $
KLGA 171151Z 33006KT 10SM SCT250 M01/M09 A3040 RMK AO2 SLP293 70005 T10111089 10022 21011 51035 $
KLGA 171251Z 33005KT 10SM BKN250 00/M09 A3042 RMK AO2 SLP301 T00001089 $
KLGA 171351Z 02005KT 10SM BKN250 01/M08 A3042 RMK AO2 SLP301 T00061083 $
KLGA 171451Z 06010KT 10SM BKN250 01/M08 A3040 RMK AO2 SLP295 T00111083 50001 $
KLGA 171551Z 05009KT 10SM BKN250 02/M07 A3039 RMK AO2 SLP289 T00171072 $
KLGA 171651Z 05008KT 10SM FEW200 BKN250 02/M07 A3038 RMK AO2 SLP287 T00221067 $
KLGA 171751Z 15012G17KT 10SM FEW060 SCT200 BKN250 04/M09 A3034 RMK AO2 SLP275 T00391094 10039 21011 58020 $
KLGA 171851Z 15012KT 10SM BKN041 BKN200 BKN250 03/M07 A3032 RMK AO2 SLP266 T00331067 $